To NAV CANADA Home Page Login to a new session Search on AWWS site Feedback and Comments Disclaimer Vers la page française équivalente Tips FAQ What's new on the site To the Forecasts and Observations / NOTAM section To "File a Flight Plan" website Publications and other links Update of the User's profile FIC Telephone Numbers My Weather Data Folder Route Weather Data Regional Weather Data Local Weather Data To the Forecasts and Observations / NOTAM section
Request Generated 04/24/2014 at 03:54:27 UTC . Weather information available at that time is displayed.

METAR/TAF

COLD LAKE/GROUP CAPTAIN R.W. MCNAIR/AB    

METAR CYOD 240300Z 08015G22KT 6SM -SHRA BR OVC020 04/03 A2960 RMK SC8 SLP041=
METAR CYOD 240200Z 09013G20KT 6SM -SHRA BR OVC025 05/03 A2958 RMK SC8 SLP035=
METAR CYOD 240100Z 09015G20KT 6SM -SHRA BR OVC023 06/03 A2958 RMK SC8 SLP033=

TAF AMD CYOD 240215Z 2402/2424 09015G25KT P6SM -SHRA OVC025 TEMPO
2402/2408 2SM -SHRA BR SCT008 OVC012
FM240800 10015G25KT 4SM -RA BR SCT006 OVC015 TEMPO 2408/2415 1SM
-SHRASN BR OVC006
FM241500 08010G20KT P6SM -RA SCT012 OVC025 TEMPO 2415/2424 3SM
-RASN BR OVC012
RMK NXT FCST BY 240600Z=
Your time UTC time
Weather data provided by Environment Canada and NAV CANADA